This is the latest recevied weather packets stored in our database for station/object K7KAR-2. If no packets are shown the sender has not sent any weather packets the latest 1 day(s).
| Time | Temp. | Humidity | Pressure | Rain* | Wind** | Luminosity | Snow |
|---|---|---|---|---|---|---|---|
| 1778093157 | 12.78° C | 10% | 1014 hPa | 0 mm | - | 804 W/m² | - |
| 1778089822 | 10.56° C | 10% | 1015.5 hPa | 0 mm | - | 802 W/m² | - |
| 1778089521 | 10° C | 10% | 1015.6 hPa | 0 mm | - | 832 W/m² | - |
| 1778088611 | 10° C | 10% | 1015.6 hPa | 0 mm | - | 612 W/m² | - |
| 1778087399 | 10° C | 10% | 1015.9 hPa | 0 mm | - | 840 W/m² | - |
| 1778087095 | 10° C | 10% | 1016 hPa | 0 mm | - | 848 W/m² | - |
| 1778085266 | 9.44° C | 10% | 1016.6 hPa | 0 mm | - | 902 W/m² | - |
| 1778084961 | 8.89° C | 10% | 1016.8 hPa | 0 mm | - | 907 W/m² | - |
| 1778083746 | 8.89° C | 10% | 1016.9 hPa | 0 mm | - | 935 W/m² | - |
| 1778082837 | 7.78° C | 15% | 1017.2 hPa | 0 mm | - | 891 W/m² | - |
| 1778079897 | 5.56° C | 26% | 1017.5 hPa | 0 mm | - | 695 W/m² | - |
| 1778078383 | 2.78° C | 33% | 1018 hPa | 0 mm | - | 546 W/m² | - |
| 1778077778 | 1.67° C | 35% | 1018.2 hPa | 0 mm | - | 471 W/m² | - |
| 1778076871 | 0° C | 39% | 1018.2 hPa | 0 mm | - | 377 W/m² | - |
| 1778076570 | 0° C | 38% | 1018.1 hPa | 0 mm | - | 358 W/m² | - |
| 1778075963 | -1.11° C | 41% | 1018.2 hPa | 0 mm | - | 332 W/m² | - |
| 1778075356 | -1.67° C | 42% | 1018.6 hPa | 0 mm | - | 298 W/m² | - |
| 1778073538 | -3.33° C | 46% | 1018.5 hPa | 0 mm | - | 170 W/m² | - |
| 1778073234 | -3.89° C | 48% | 1018.5 hPa | 0 mm | - | 169 W/m² | - |
| 1778071722 | -5° C | 51% | 1018.5 hPa | 0 mm | - | 76 W/m² | - |
| 1778071418 | -5° C | 51% | 1018.5 hPa | 0 mm | - | 70 W/m² | - |
| 1778071116 | -5° C | 51% | 1018.7 hPa | 0 mm | - | 57 W/m² | - |
| 1778069603 | -6.67° C | 54% | 1018.8 hPa | 0 mm | - | 14 W/m² | - |
| 1778068695 | -6.67° C | 54% | 1018.6 hPa | 0 mm | - | 5 W/m² | - |
| 1778068394 | -6.11° C | 53% | 1018.5 hPa | 0 mm | - | 3 W/m² | - |
* Rain latest hour (hover to see other rain measurements)
** Current wind speed in m/s (hover to see current wind gust speed)